Terminal Aerodrome Forecast
Issued by NWS Amarillo, TX

Current Version | Previous Version | Text Only | Print | Product List | Glossary On
Versions: 1 2 3 4 5 6 7 8 9 10 11 12 13 14 15 16 17
000
FTUS44 KAMA 031400 AAA
TAFAMA
TAF AMD
KAMA 031439Z 0315/0412 25010KT P6SM SCT100 OVC200
     FM031600 20018G28KT P6SM SCT080 SCT200
     FM040000 16016KT P6SM BKN080 OVC200
     FM040800 17011KT P6SM SCT100 OVC200=

USA.gov is the U.S. government's official web portal to all federal, state and local government web resources and services.